createdAt,value
2018-06-20T00:01:09.352Z,93.10
2018-06-20T00:03:37.017Z,93.20
2018-06-20T00:06:04.646Z,93.50
2018-06-20T00:11:03.973Z,93.70
2018-06-20T00:15:59.089Z,94.10
2018-06-20T00:20:54.204Z,93.90
2018-06-20T00:23:21.821Z,93.90
2018-06-20T00:25:49.447Z,93.80
2018-06-20T00:28:17.076Z,93.90
2018-06-20T00:30:44.683Z,94.20
2018-06-20T00:33:12.297Z,94.50
2018-06-20T00:35:39.907Z,94.40
2018-06-20T00:38:07.542Z,94.00
2018-06-20T00:40:35.192Z,94.10
2018-06-20T00:43:02.822Z,94.30
2018-06-20T00:47:57.993Z,94.50
2018-06-20T00:52:53.094Z,94.20
2018-06-20T00:57:53.680Z,94.00
2018-06-20T01:00:21.362Z,94.20
2018-06-20T01:05:16.622Z,93.90
2018-06-20T01:07:44.267Z,94.10
2018-06-20T01:10:11.889Z,94.00
2018-06-20T01:15:07.144Z,94.10
2018-06-20T01:20:02.458Z,94.30
2018-06-20T01:22:30.218Z,94.20
2018-06-20T01:29:52.993Z,93.90
2018-06-20T01:32:20.648Z,94.10
2018-06-20T01:37:15.914Z,94.20
2018-06-20T01:39:43.606Z,93.90
2018-06-20T01:44:38.775Z,94.00
2018-06-20T01:47:06.440Z,94.10
2018-06-20T01:49:34.125Z,94.20
2018-06-20T01:52:01.792Z,94.10
2018-06-20T01:54:29.458Z,94.10
2018-06-20T01:56:57.117Z,94.20
2018-06-20T01:59:24.765Z,94.50
2018-06-20T02:01:52.523Z,94.50
2018-06-20T02:04:20.148Z,94.40
2018-06-20T02:06:47.855Z,94.40
2018-06-20T02:09:15.493Z,94.70
2018-06-20T02:11:43.165Z,94.90
2018-06-20T02:14:11.761Z,94.70
2018-06-20T02:21:34.493Z,94.90
2018-06-20T02:24:02.129Z,94.90
2018-06-20T02:26:29.825Z,94.90
2018-06-20T02:31:25.045Z,95.20
2018-06-20T02:33:52.689Z,95.10
2018-06-20T02:38:53.366Z,95.30
2018-06-20T02:41:20.991Z,95.20
2018-06-20T02:43:48.610Z,95.30
2018-06-20T02:46:16.262Z,95.20
2018-06-20T02:48:43.944Z,95.20
2018-06-20T02:51:11.550Z,95.10
2018-06-20T02:53:39.209Z,95.20
2018-06-20T02:56:06.849Z,95.40
2018-06-20T02:58:34.498Z,95.40
2018-06-20T03:01:02.265Z,95.10
2018-06-20T03:05:57.369Z,94.90
2018-06-20T03:08:25.045Z,95.10
2018-06-20T03:10:52.652Z,95.00
2018-06-20T03:13:20.265Z,94.80
2018-06-20T03:18:15.343Z,94.80
2018-06-20T03:23:10.450Z,94.80
2018-06-20T03:25:38.085Z,95.10
2018-06-20T03:33:00.726Z,94.60
2018-06-20T03:35:28.350Z,94.80
2018-06-20T03:37:55.988Z,94.70
2018-06-20T03:40:23.625Z,94.80
2018-06-20T03:42:51.230Z,94.90
2018-06-20T03:45:18.856Z,95.20
2018-06-20T03:57:36.516Z,94.90
2018-06-20T04:00:04.275Z,94.80
2018-06-20T04:07:26.935Z,94.70
2018-06-20T04:09:54.595Z,94.80
2018-06-20T04:14:49.751Z,94.70
2018-06-20T04:19:44.953Z,94.70
2018-06-20T04:22:12.596Z,94.70
2018-06-20T04:24:40.232Z,94.60
2018-06-20T04:27:07.892Z,94.60
2018-06-20T04:32:03.046Z,94.90
2018-06-20T04:34:30.720Z,94.90
2018-06-20T04:39:26.003Z,95.30
2018-06-20T04:41:53.674Z,95.40
2018-06-20T04:44:21.259Z,95.00
2018-06-20T04:49:16.385Z,94.70
2018-06-20T04:51:44.030Z,94.70
2018-06-20T04:56:39.245Z,94.60
2018-06-20T05:01:34.479Z,94.90
2018-06-20T05:04:02.099Z,94.80
2018-06-20T05:06:29.731Z,94.80
2018-06-20T05:08:57.380Z,95.20
2018-06-20T05:13:52.524Z,95.00
2018-06-20T05:16:20.116Z,95.00
2018-06-20T05:21:15.256Z,94.90
2018-06-20T05:26:10.376Z,94.30
2018-06-20T05:28:38.052Z,94.50
2018-06-20T05:31:05.679Z,94.60
2018-06-20T05:33:33.314Z,94.10
2018-06-20T05:40:56.055Z,94.20
2018-06-20T05:43:23.750Z,94.10
2018-06-20T05:48:19.281Z,94.20
2018-06-20T05:50:47.271Z,94.10
2018-06-20T05:53:14.886Z,94.00
2018-06-20T05:55:42.540Z,94.00
2018-06-20T05:58:10.151Z,93.70
2018-06-20T06:00:37.875Z,93.40
2018-06-20T06:03:05.490Z,93.70
2018-06-20T06:08:05.856Z,93.20
2018-06-20T06:10:33.456Z,93.20
2018-06-20T06:13:01.081Z,92.70
2018-06-20T06:17:56.288Z,91.40
2018-06-20T06:20:23.945Z,90.70
2018-06-20T06:22:51.617Z,90.40
2018-06-20T06:25:19.249Z,90.20
2018-06-20T06:27:46.905Z,89.80
2018-06-20T06:30:14.595Z,88.20
2018-06-20T06:32:42.263Z,89.10
2018-06-20T06:35:09.926Z,89.20
2018-06-20T06:37:37.561Z,87.00
2018-06-20T06:42:32.795Z,82.90
2018-06-20T06:45:00.518Z,83.00
2018-06-20T06:47:28.756Z,80.80
2018-06-20T06:49:56.432Z,79.60
2018-06-20T06:52:24.032Z,76.80
2018-06-20T06:54:51.716Z,76.40
2018-06-20T06:57:19.417Z,74.80
2018-06-20T06:59:47.092Z,77.80
2018-06-20T07:07:10.003Z,73.50
2018-06-20T07:09:37.652Z,71.90
2018-06-20T07:12:05.371Z,73.60
2018-06-20T07:14:32.977Z,71.80
2018-06-20T07:17:00.596Z,72.10
2018-06-20T07:19:28.255Z,69.40
2018-06-20T07:24:23.660Z,68.50
2018-06-20T07:26:51.246Z,69.90
2018-06-20T07:29:18.956Z,67.20
2018-06-20T07:31:46.507Z,71.70
2018-06-20T07:34:14.295Z,67.20
2018-06-20T07:36:41.830Z,66.10
2018-06-20T07:39:09.446Z,70.90
2018-06-20T07:41:37.190Z,67.00
2018-06-20T07:44:04.896Z,68.30
2018-06-20T07:49:00.103Z,66.90
2018-06-20T07:51:27.742Z,68.40
2018-06-20T07:53:55.368Z,67.00
2018-06-20T07:58:57.376Z,64.40
2018-06-20T08:03:41.832Z,64.00
2018-06-20T08:06:15.073Z,64.20
2018-06-20T08:08:48.303Z,63.80
2018-06-20T08:11:21.537Z,63.50
2018-06-20T08:19:01.061Z,60.60
2018-06-20T08:21:28.802Z,61.30
2018-06-20T08:23:56.422Z,59.30
2018-06-20T08:26:24.048Z,61.30
2018-06-20T08:28:51.678Z,60.20
2018-06-20T08:36:14.361Z,62.40
2018-06-20T08:43:37.086Z,59.50
2018-06-20T08:48:32.233Z,59.00
2018-06-20T08:50:59.882Z,58.90
2018-06-20T08:55:55.057Z,58.50
2018-06-20T08:58:22.664Z,59.00
2018-06-20T09:00:56.059Z,57.40
2018-06-20T09:03:23.710Z,56.80
2018-06-20T09:05:56.888Z,57.00
2018-06-20T09:08:30.082Z,57.30
2018-06-20T09:11:03.414Z,57.40
2018-06-20T09:18:13.453Z,56.20
2018-06-20T09:20:41.068Z,55.60
2018-06-20T09:23:08.667Z,55.30
2018-06-20T09:28:03.842Z,54.50
2018-06-20T09:30:31.491Z,54.60
2018-06-20T09:32:59.187Z,55.00
2018-06-20T09:35:26.802Z,54.30
2018-06-20T09:37:54.461Z,55.10
2018-06-20T09:40:22.086Z,55.40
2018-06-20T09:47:44.887Z,51.80
2018-06-20T09:50:18.145Z,52.80
2018-06-20T09:52:45.752Z,53.60
2018-06-20T09:55:13.418Z,53.70
2018-06-20T09:57:41.138Z,54.50
2018-06-20T10:00:14.271Z,53.30
2018-06-20T10:02:47.517Z,53.80
2018-06-20T10:10:57.640Z,52.60
2018-06-20T10:13:26.065Z,54.20
2018-06-20T10:20:49.171Z,51.50
2018-06-20T10:23:16.807Z,51.60
2018-06-20T10:28:11.949Z,50.60
2018-06-20T10:30:39.561Z,50.90
2018-06-20T10:33:07.177Z,49.20
2018-06-20T10:35:34.803Z,50.20
2018-06-20T10:40:29.906Z,50.20
2018-06-20T10:42:57.752Z,50.50
2018-06-20T10:45:30.945Z,48.10
2018-06-20T10:50:26.161Z,51.40
2018-06-20T10:52:53.821Z,49.30
2018-06-20T10:55:21.411Z,45.90
2018-06-20T10:57:54.633Z,46.30
2018-06-20T11:00:27.938Z,48.80
2018-06-20T11:03:01.137Z,46.90
2018-06-20T11:08:07.553Z,46.40
2018-06-20T11:13:11.422Z,48.20
2018-06-20T11:15:39.103Z,49.60
2018-06-20T11:18:06.798Z,46.90
2018-06-20T11:28:07.018Z,49.20
2018-06-20T11:30:34.646Z,48.70
2018-06-20T11:37:57.462Z,48.90
2018-06-20T11:40:25.154Z,49.50
2018-06-20T11:45:20.296Z,48.40
2018-06-20T11:47:47.972Z,49.30
2018-06-20T11:50:15.693Z,47.40
2018-06-20T11:52:49.527Z,51.80
2018-06-20T11:55:23.197Z,48.80
2018-06-20T11:57:51.383Z,49.30
2018-06-20T12:00:25.082Z,46.60
2018-06-20T12:02:58.662Z,47.80
2018-06-20T12:14:18.754Z,45.70
2018-06-20T12:16:48.308Z,47.30
2018-06-20T12:19:22.749Z,46.20
2018-06-20T12:21:56.373Z,45.50
2018-06-20T12:27:03.563Z,47.50
2018-06-20T12:29:37.349Z,47.60
2018-06-20T12:37:24.197Z,45.80
2018-06-20T12:39:57.902Z,44.90
2018-06-20T12:42:31.807Z,45.60
2018-06-20T12:47:39.383Z,45.40
2018-06-20T12:50:10.718Z,46.10
2018-06-20T12:52:38.445Z,45.10
2018-06-20T12:55:06.090Z,44.20
2018-06-20T12:57:33.778Z,44.30
2018-06-20T13:02:28.972Z,41.80
2018-06-20T13:04:56.597Z,41.60
2018-06-20T13:07:24.242Z,41.70
2018-06-20T13:09:51.903Z,38.90
2018-06-20T13:14:47.079Z,37.70
2018-06-20T13:17:15.064Z,38.40
2018-06-20T13:19:42.740Z,38.10
2018-06-20T13:27:05.404Z,41.40
2018-06-20T13:32:06.214Z,40.90
2018-06-20T13:34:39.495Z,38.40
2018-06-20T13:37:12.694Z,38.90
2018-06-20T13:39:45.967Z,39.10
2018-06-20T13:42:18.939Z,38.20
2018-06-20T13:44:46.691Z,37.50
2018-06-20T13:47:19.854Z,35.30
2018-06-20T13:49:47.566Z,35.00
2018-06-20T13:52:15.309Z,31.10
2018-06-20T13:54:42.953Z,32.20
2018-06-20T13:57:10.596Z,33.30
2018-06-20T13:59:38.260Z,32.20
2018-06-20T14:07:01.112Z,29.00
2018-06-20T14:09:28.760Z,32.10
2018-06-20T14:11:56.388Z,32.20
2018-06-20T14:14:23.996Z,29.90
2018-06-20T14:19:23.683Z,29.80
2018-06-20T14:24:18.811Z,29.80
2018-06-20T14:29:14.008Z,29.30
2018-06-20T14:31:47.270Z,29.70
2018-06-20T14:34:20.419Z,28.30
2018-06-20T14:36:53.681Z,27.50
2018-06-20T14:39:26.815Z,27.00
2018-06-20T14:42:00.077Z,28.70
2018-06-20T14:51:50.314Z,28.40
2018-06-20T14:54:17.941Z,27.50
2018-06-20T14:56:45.690Z,28.30
2018-06-20T14:59:13.364Z,29.80
2018-06-20T15:01:41.134Z,29.90
2018-06-20T15:04:08.809Z,31.00
2018-06-20T15:06:36.498Z,31.80
2018-06-20T15:09:06.505Z,33.00
2018-06-20T15:14:01.713Z,35.00
2018-06-20T15:16:34.830Z,35.70
2018-06-20T15:21:30.001Z,31.60
2018-06-20T15:23:57.630Z,31.50
2018-06-20T15:31:09.713Z,33.70
2018-06-20T15:33:42.835Z,34.50
2018-06-20T15:36:15.938Z,34.80
2018-06-20T15:38:43.658Z,35.70
2018-06-20T15:41:11.294Z,36.20
2018-06-20T15:43:38.909Z,39.40
2018-06-20T15:46:06.530Z,39.00
2018-06-20T15:48:34.639Z,38.30
2018-06-20T15:51:02.335Z,39.10
2018-06-20T15:55:57.560Z,39.60
2018-06-20T15:58:25.193Z,39.40
2018-06-20T16:00:52.870Z,39.60
2018-06-20T16:03:21.178Z,40.50
2018-06-20T16:05:48.775Z,40.80
2018-06-20T16:08:16.404Z,41.80
2018-06-20T16:13:11.619Z,40.40
2018-06-20T16:15:39.305Z,40.90
2018-06-20T16:20:40.130Z,42.60
2018-06-20T16:23:13.508Z,41.90
2018-06-20T16:25:46.685Z,42.20
2018-06-20T16:28:19.991Z,41.40
2018-06-20T16:30:47.624Z,43.40
2018-06-20T16:33:15.331Z,44.00
2018-06-20T16:35:43.062Z,44.90
2018-06-20T16:40:38.282Z,44.00
2018-06-20T16:45:33.461Z,47.20
2018-06-20T16:48:01.034Z,46.40
2018-06-20T16:50:28.665Z,45.50
2018-06-20T16:52:56.290Z,44.30
2018-06-20T16:55:23.959Z,47.20
2018-06-20T17:00:19.171Z,45.40
2018-06-20T17:05:14.410Z,45.90
2018-06-20T17:10:09.735Z,45.30
2018-06-20T17:12:43.110Z,45.50
2018-06-20T17:27:55.475Z,47.40
2018-06-20T17:32:50.791Z,47.60
2018-06-20T17:37:46.038Z,46.30
2018-06-20T17:40:13.790Z,47.50
2018-06-20T17:42:41.510Z,46.60
2018-06-20T17:45:09.226Z,48.40
2018-06-20T17:47:36.920Z,49.70
2018-06-20T17:57:27.274Z,51.90
2018-06-20T18:02:22.649Z,53.60
2018-06-20T18:04:55.950Z,54.60
2018-06-20T18:07:29.171Z,55.90
2018-06-20T18:10:02.454Z,56.20
2018-06-20T18:12:35.682Z,56.70
2018-06-20T18:15:09.091Z,57.50
2018-06-20T18:17:36.735Z,58.30
2018-06-20T18:20:04.377Z,58.70
2018-06-20T18:22:32.131Z,59.10
2018-06-20T18:24:59.794Z,59.40
2018-06-20T18:27:27.455Z,59.30
2018-06-20T18:29:55.136Z,59.70
2018-06-20T18:32:22.819Z,60.60
2018-06-20T18:34:50.545Z,61.60
2018-06-20T18:37:18.244Z,61.10
2018-06-20T18:39:51.684Z,62.00
2018-06-20T18:42:19.316Z,62.30
2018-06-20T18:44:47.120Z,63.70
2018-06-20T18:47:20.365Z,63.10
2018-06-20T18:49:48.116Z,64.60
2018-06-20T18:57:16.385Z,67.10
2018-06-20T18:59:49.589Z,67.10
2018-06-20T19:02:22.781Z,68.60
2018-06-20T19:05:55.405Z,69.70
2018-06-20T19:08:28.751Z,71.40
2018-06-20T19:10:56.460Z,72.00
2018-06-20T19:13:24.405Z,73.00
2018-06-20T19:15:51.980Z,73.50
2018-06-20T19:18:19.662Z,73.50
2018-06-20T19:20:47.567Z,74.10
2018-06-20T19:23:15.254Z,75.10
2018-06-20T19:25:42.891Z,76.10
2018-06-20T19:28:10.577Z,76.60
2018-06-20T19:30:38.222Z,77.50
2018-06-20T19:40:28.505Z,77.90
2018-06-20T19:45:23.706Z,78.70
2018-06-20T19:50:18.907Z,79.80
2018-06-20T19:55:14.172Z,80.00
2018-06-20T19:57:41.835Z,80.40
2018-06-20T20:02:37.182Z,81.30
2018-06-20T20:05:05.061Z,81.30
2018-06-20T20:07:32.726Z,81.80
2018-06-20T20:12:27.946Z,82.60
2018-06-20T20:17:23.212Z,83.10
2018-06-20T20:19:50.907Z,82.90
2018-06-20T20:29:41.306Z,82.40
2018-06-20T20:34:50.671Z,83.10
2018-06-20T20:42:15.231Z,84.70
2018-06-20T20:44:43.780Z,85.20
2018-06-20T20:47:11.922Z,85.50
2018-06-20T20:52:08.327Z,85.40
2018-06-20T20:57:04.732Z,85.70
2018-06-20T20:59:33.305Z,85.60
2018-06-20T21:02:03.351Z,86.30
2018-06-20T21:04:31.010Z,86.50
2018-06-20T21:06:59.381Z,86.50
2018-06-20T21:09:27.543Z,86.00
2018-06-20T21:11:55.725Z,86.00
2018-06-20T21:14:24.702Z,86.30
2018-06-20T21:16:53.475Z,86.30
2018-06-20T21:19:22.656Z,86.30
2018-06-20T21:21:51.097Z,86.20
2018-06-20T21:26:46.333Z,86.40
2018-06-20T21:31:43.600Z,85.30
2018-06-20T21:34:12.286Z,86.00
2018-06-20T21:36:40.171Z,86.60
2018-06-20T21:41:37.502Z,87.40
2018-06-20T21:44:06.838Z,87.80
2018-06-20T21:51:32.627Z,88.00
2018-06-20T21:54:01.869Z,88.30
2018-06-20T21:56:30.674Z,88.80
2018-06-20T22:03:58.654Z,88.70
2018-06-20T22:13:51.916Z,86.70
2018-06-20T22:21:14.636Z,87.60
2018-06-20T22:28:37.423Z,89.40
2018-06-20T22:31:05.092Z,88.80
2018-06-20T22:36:00.307Z,88.00
2018-06-20T22:38:27.945Z,88.80
2018-06-20T22:48:18.156Z,90.50
2018-06-20T22:53:13.328Z,90.80
2018-06-20T22:55:40.985Z,91.40
2018-06-20T22:58:10.190Z,91.30
2018-06-20T23:00:37.865Z,91.70
2018-06-20T23:05:33.017Z,91.60
2018-06-20T23:08:00.693Z,91.30
2018-06-20T23:10:28.322Z,91.40
2018-06-20T23:12:55.962Z,91.40
2018-06-20T23:15:23.590Z,91.10
2018-06-20T23:17:51.256Z,90.80
2018-06-20T23:27:41.470Z,91.10
2018-06-20T23:30:09.163Z,90.90
2018-06-20T23:32:36.796Z,91.40
2018-06-20T23:35:04.551Z,91.60
2018-06-20T23:37:32.188Z,91.20
2018-06-20T23:39:59.890Z,90.90
2018-06-20T23:42:27.539Z,90.90
2018-06-20T23:44:55.182Z,90.80
2018-06-20T23:49:50.333Z,90.70
2018-06-20T23:52:17.985Z,90.80
2018-06-20T23:57:13.100Z,90.90
2018-06-20T23:59:40.715Z,91.10
